Time;durP1;ratioP1;P1;durP2;ratioP2;P2;SDS_P1;SDS_P2;PMS_P1;PMS_P2;Temp;Humidity;BMP_temperature;BMP_pressure;BME280_temperature;BME280_humidity;BME280_pressure;Samples;Min_cycle;Max_cycle;Signal;HPM_P1;HPM_P2
2023/04/25 00:01:18;;;;;;;17.60;4.70;;;10.10;99.90;;;;;;7283374;19;20226;-80
2023/04/25 00:03:45;;;;;;;26.33;5.07;;;9.90;99.90;;;;;;7283058;19;20184;-80
2023/04/25 00:06:13;;;;;;;18.67;4.97;;;9.80;99.90;;;;;;7281608;19;20647;-80
2023/04/25 00:08:39;;;;;;;20.87;4.40;;;9.80;99.90;;;;;;7283464;19;20609;-80
2023/04/25 00:11:05;;;;;;;18.43;4.83;;;9.90;99.90;;;;;;7282491;19;20191;-81
2023/04/25 00:13:31;;;;;;;24.57;5.10;;;9.90;99.90;;;;;;7283189;19;20199;-80
2023/04/25 00:15:57;;;;;;;22.00;4.90;;;9.80;99.90;;;;;;7283524;19;20191;-81
2023/04/25 00:18:24;;;;;;;19.73;4.83;;;9.70;99.90;;;;;;7296752;19;20236;-80
2023/04/25 00:20:50;;;;;;;15.63;4.50;;;9.80;99.90;;;;;;7305082;19;20189;-80
2023/04/25 00:23:19;;;;;;;19.60;5.10;;;9.90;99.90;;;;;;7282790;19;20184;-81
2023/04/25 00:25:46;;;;;;;17.30;5.23;;;10.00;99.90;;;;;;7289321;19;20963;-80
2023/04/25 00:28:12;;;;;;;21.97;5.37;;;9.90;99.90;;;;;;7290661;19;20630;-80
2023/04/25 00:30:39;;;;;;;25.43;4.90;;;9.90;99.90;;;;;;7289894;19;20514;-80
2023/04/25 00:33:05;;;;;;;22.27;4.90;;;9.90;99.90;;;;;;7288073;19;20655;-81
2023/04/25 00:35:31;;;;;;;21.77;4.90;;;9.80;99.90;;;;;;7290387;19;20377;-80
2023/04/25 00:37:57;;;;;;;22.47;5.20;;;9.90;99.90;;;;;;7289242;19;20193;-79
2023/04/25 00:40:23;;;;;;;22.57;4.77;;;10.00;99.90;;;;;;7311704;19;20191;-79
2023/04/25 00:42:51;;;;;;;23.00;5.27;;;10.00;99.90;;;;;;7291440;19;20277;-81
2023/04/25 00:45:17;;;;;;;21.90;5.13;;;9.80;99.90;;;;;;7289293;19;20511;-81
2023/04/25 00:47:44;;;;;;;18.93;5.10;;;9.60;99.90;;;;;;7290125;19;20212;-80
2023/04/25 00:50:10;;;;;;;19.43;5.23;;;9.70;99.90;;;;;;7288485;19;20192;-80
2023/04/25 00:52:40;;;;;;;27.80;5.70;;;9.80;99.90;;;;;;7288729;19;20192;-80
2023/04/25 00:55:07;;;;;;;21.93;5.57;;;9.90;99.90;;;;;;7290331;19;20273;-80
2023/04/25 00:57:34;;;;;;;21.07;4.90;;;9.90;99.90;;;;;;7287703;19;20260;-80
2023/04/25 01:00:00;;;;;;;25.37;5.83;;;9.90;99.90;;;;;;7290636;19;20273;-80
2023/04/25 01:02:28;;;;;;;22.10;5.80;;;9.70;99.90;;;;;;7290343;19;20195;-79
2023/04/25 01:04:54;;;;;;;22.60;6.00;;;9.60;99.90;;;;;;7296975;19;20204;-79
2023/04/25 01:07:19;;;;;;;23.83;5.10;;;9.50;99.90;;;;;;7310814;19;20287;-80
2023/04/25 01:09:46;;;;;;;26.17;5.53;;;9.30;99.90;;;;;;7290181;19;20192;-81
2023/04/25 01:12:14;;;;;;;23.53;5.60;;;9.40;99.90;;;;;;7287574;19;20203;-81
2023/04/25 01:14:40;;;;;;;21.53;5.67;;;9.50;99.90;;;;;;7287853;19;20199;-79
2023/04/25 01:17:07;;;;;;;19.87;5.00;;;9.50;99.90;;;;;;7287500;19;20252;-80
2023/04/25 01:19:33;;;;;;;25.00;5.37;;;9.40;99.90;;;;;;7285624;19;20257;-80
2023/04/25 01:22:01;;;;;;;18.77;5.57;;;9.40;99.90;;;;;;7287537;19;20215;-80
2023/04/25 01:24:27;;;;;;;27.27;5.80;;;9.40;99.90;;;;;;7289145;19;20207;-80
2023/04/25 01:26:56;;;;;;;20.60;5.27;;;9.20;99.90;;;;;;7290184;19;20207;-79
2023/04/25 01:29:24;;;;;;;21.83;5.57;;;9.20;99.90;;;;;;7306859;19;20258;-80
2023/04/25 01:31:52;;;;;;;20.23;5.60;;;9.30;99.90;;;;;;7309804;19;20548;-80
2023/04/25 01:34:18;;;;;;;21.30;5.30;;;9.20;99.90;;;;;;7288198;19;20195;-80
2023/04/25 01:36:44;;;;;;;20.93;5.73;;;9.30;99.90;;;;;;7285037;19;20186;-81
2023/04/25 01:39:10;;;;;;;26.77;5.63;;;9.30;99.90;;;;;;7289054;19;20184;-81
2023/04/25 01:41:36;;;;;;;18.30;5.63;;;9.50;99.90;;;;;;7288991;19;20200;-80
2023/04/25 01:44:03;;;;;;;26.70;7.13;;;9.60;99.90;;;;;;7287241;19;20191;-80
2023/04/25 01:46:30;;;;;;;26.50;6.57;;;9.40;99.90;;;;;;7288268;19;20666;-80
2023/04/25 01:48:56;;;;;;;24.93;6.40;;;9.40;99.90;;;;;;7287502;19;20185;-80
2023/04/25 01:51:22;;;;;;;23.77;6.20;;;9.50;99.90;;;;;;7310357;19;20247;-81
2023/04/25 01:53:48;;;;;;;24.63;6.37;;;9.30;99.90;;;;;;7286956;19;20195;-79
2023/04/25 01:56:14;;;;;;;25.67;6.57;;;9.30;99.90;;;;;;7285745;19;20188;-81
2023/04/25 01:58:40;;;;;;;27.47;6.07;;;9.50;99.90;;;;;;7287099;19;20548;-80
2023/04/25 02:01:32;;;;;;;29.63;7.50;;;9.70;99.90;;;;;;7183851;19;2004548;-80
2023/04/25 02:04:14;;;;;;;26.57;6.90;;;9.80;99.90;;;;;;7288114;19;20193;-81
2023/04/25 02:06:41;;;;;;;21.10;6.60;;;9.90;99.90;;;;;;7287110;19;20188;-80
2023/04/25 02:09:07;;;;;;;24.50;6.87;;;9.80;99.90;;;;;;7286618;19;20193;-81
2023/04/25 02:11:32;;;;;;;24.30;6.87;;;9.90;99.90;;;;;;7287015;19;20247;-81
2023/04/25 02:14:28;;;;;;;23.07;6.63;;;9.90;99.90;;;;;;7265410;19;20187;-80
2023/04/25 02:17:23;;;;;;;20.60;6.33;;;9.80;99.90;;;;;;7283297;19;20283;-80
2023/04/25 02:19:50;;;;;;;29.17;7.00;;;9.90;99.90;;;;;;7311390;19;20185;-80
2023/04/25 02:22:16;;;;;;;26.50;6.27;;;9.80;99.90;;;;;;7286314;19;20180;-80
2023/04/25 02:24:42;;;;;;;27.00;6.90;;;9.90;99.90;;;;;;7287197;19;20718;-80
2023/04/25 02:27:08;;;;;;;26.17;7.03;;;9.80;99.90;;;;;;7286638;19;20276;-80
2023/04/25 02:29:34;;;;;;;27.50;6.40;;;9.90;99.90;;;;;;7286585;19;20218;-80
2023/04/25 02:32:00;;;;;;;24.87;7.33;;;10.00;99.90;;;;;;7287141;19;20187;-80
2023/04/25 02:34:26;;;;;;;25.00;6.80;;;9.90;99.90;;;;;;7287060;19;20605;-80
2023/04/25 02:36:52;;;;;;;24.10;6.30;;;9.80;99.90;;;;;;7307565;19;20513;-80
2023/04/25 02:39:18;;;;;;;30.23;6.67;;;9.90;99.90;;;;;;7286619;19;20536;-80
2023/04/25 02:41:44;;;;;;;25.17;6.23;;;9.90;99.90;;;;;;7285824;19;20198;-80
2023/04/25 02:44:09;;;;;;;26.07;7.70;;;10.00;99.90;;;;;;7285603;19;20187;-79
2023/04/25 02:46:37;;;;;;;28.93;6.70;;;10.00;99.90;;;;;;7286137;19;20530;-80
2023/04/25 02:49:02;;;;;;;25.70;6.60;;;10.10;99.90;;;;;;7284432;19;20254;-79
2023/04/25 02:51:30;;;;;;;20.27;6.20;;;10.20;99.90;;;;;;7285923;19;20179;-79
2023/04/25 02:53:55;;;;;;;21.63;6.67;;;10.10;99.90;;;;;;7286312;19;20713;-80
2023/04/25 02:56:21;;;;;;;25.03;6.97;;;10.00;99.90;;;;;;7305070;19;20202;-80
2023/04/25 02:58:48;;;;;;;21.77;6.40;;;9.90;99.90;;;;;;7285512;19;20268;-82
2023/04/25 03:01:14;;;;;;;28.83;7.00;;;9.90;99.90;;;;;;7286655;19;20601;-80
2023/04/25 03:03:40;;;;;;;27.83;7.17;;;10.00;99.90;;;;;;7285510;19;20185;-80
2023/04/25 03:06:06;;;;;;;29.33;7.27;;;10.10;99.90;;;;;;7285908;19;20543;-80
2023/04/25 03:08:34;;;;;;;27.53;6.70;;;10.20;99.90;;;;;;7284992;19;20195;-79
2023/04/25 03:11:01;;;;;;;27.17;6.90;;;10.30;99.90;;;;;;7283859;19;20185;-80
2023/04/25 03:13:27;;;;;;;20.20;6.57;;;10.30;99.90;;;;;;7285290;19;20202;-79
2023/04/25 03:15:53;;;;;;;23.50;6.97;;;10.20;99.90;;;;;;7305487;19;20647;-78
2023/04/25 03:18:19;;;;;;;24.40;7.40;;;10.30;99.90;;;;;;7292615;19;20203;-80
2023/04/25 03:20:45;;;;;;;22.10;6.70;;;10.40;99.90;;;;;;7285417;19;20182;-81
2023/04/25 03:23:10;;;;;;;26.57;7.07;;;10.40;99.90;;;;;;7285733;19;20542;-80
2023/04/25 03:25:39;;;;;;;23.47;6.73;;;10.40;99.90;;;;;;7285440;19;20666;-80
2023/04/25 03:28:05;;;;;;;24.07;6.80;;;10.40;99.90;;;;;;7285823;19;20200;-81
2023/04/25 03:30:31;;;;;;;21.33;6.80;;;10.10;99.90;;;;;;7284511;19;20637;-81
2023/04/25 03:32:57;;;;;;;22.77;7.07;;;10.10;99.90;;;;;;7284087;19;20821;-80
2023/04/25 03:35:23;;;;;;;23.13;7.70;;;10.20;99.90;;;;;;7305698;19;20189;-80
2023/04/25 03:37:50;;;;;;;32.47;7.50;;;10.10;99.90;;;;;;7285753;19;20196;-80
2023/04/25 03:40:21;;;;;;;27.30;7.20;;;10.10;99.90;;;;;;7284905;19;20209;-80
2023/04/25 03:43:06;;;;;;;28.77;7.20;;;10.20;99.90;;;;;;7182920;19;2004636;-81
2023/04/25 03:45:33;;;;;;;27.53;6.17;;;10.10;99.90;;;;;;7284032;19;20200;-79
2023/04/25 03:47:59;;;;;;;27.93;7.00;;;10.00;99.90;;;;;;7283616;19;20188;-79
2023/04/25 03:50:27;;;;;;;34.27;7.57;;;9.90;99.90;;;;;;7282501;19;20191;-80
2023/04/25 03:52:53;;;;;;;23.87;6.87;;;9.90;99.90;;;;;;7305442;19;20195;-81
2023/04/25 03:55:19;;;;;;;26.37;7.13;;;9.80;99.90;;;;;;7284018;19;20186;-80
2023/04/25 03:57:45;;;;;;;26.73;6.50;;;9.70;99.90;;;;;;7282923;19;20210;-81
2023/04/25 04:00:12;;;;;;;28.20;6.40;;;9.60;99.90;;;;;;7280416;19;20240;-80
2023/04/25 04:02:41;;;;;;;25.47;5.97;;;9.30;99.90;;;;;;7282773;19;20659;-80
2023/04/25 04:05:09;;;;;;;23.57;6.23;;;9.40;99.90;;;;;;7283168;19;20195;-80
2023/04/25 04:07:39;;;;;;;27.33;6.83;;;9.00;99.90;;;;;;7283438;19;20190;-81
2023/04/25 04:10:08;;;;;;;35.27;6.70;;;8.80;99.90;;;;;;7283580;19;20187;-80
2023/04/25 04:12:37;;;;;;;23.03;5.90;;;8.80;99.90;;;;;;7283020;19;20194;-81
2023/04/25 04:15:05;;;;;;;28.10;6.27;;;8.90;99.90;;;;;;7284343;19;20208;-81
2023/04/25 04:17:32;;;;;;;24.93;6.47;;;8.70;99.90;;;;;;7280834;19;20190;-80
2023/04/25 04:19:58;;;;;;;28.77;6.77;;;8.70;99.90;;;;;;7282968;19;20193;-80
2023/04/25 04:22:25;;;;;;;24.97;6.40;;;8.90;99.90;;;;;;7295231;19;20197;-79
2023/04/25 04:24:54;;;;;;;22.13;5.93;;;9.20;99.90;;;;;;7302422;19;20189;-79
2023/04/25 04:27:44;;;;;;;28.97;7.00;;;9.40;99.90;;;;;;7282389;19;20200;-80
2023/04/25 04:30:24;;;;;;;27.40;6.00;;;9.60;99.90;;;;;;7283157;19;20662;-81
2023/04/25 04:32:56;;;;;;;23.57;5.70;;;9.60;99.90;;;;;;7264113;19;20196;-81
2023/04/25 04:35:23;;;;;;;30.93;6.53;;;9.30;99.90;;;;;;7305009;19;20800;-80
2023/04/25 04:37:50;;;;;;;26.50;6.30;;;9.20;99.90;;;;;;7281781;19;20187;-81
2023/04/25 04:40:17;;;;;;;30.37;6.17;;;9.30;99.90;;;;;;7281949;19;20190;-81
2023/04/25 04:43:18;;;;;;;28.10;6.10;;;9.30;99.90;;;;;;7179671;19;2004468;-81
2023/04/25 04:45:50;;;;;;;31.00;6.57;;;9.40;99.90;;;;;;7284213;19;20272;-80
2023/04/25 04:48:34;;;;;;;22.70;6.23;;;9.30;99.90;;;;;;7180008;19;2005026;-80
2023/04/25 04:51:18;;;;;;;20.70;6.07;;;9.20;99.90;;;;;;7281818;19;20187;-80
2023/04/25 04:53:44;;;;;;;24.97;6.57;;;9.20;99.90;;;;;;7282652;19;20199;-80
2023/04/25 04:56:41;;;;;;;26.00;5.93;;;9.20;99.90;;;;;;7180050;19;2004393;-81
2023/04/25 04:59:33;;;;;;;26.90;6.90;;;9.40;99.90;;;;;;7181023;19;2004792;-81
2023/04/25 05:02:38;;;;;;;30.30;6.50;;;9.60;99.90;;;;;;7179965;19;2004607;-80
2023/04/25 05:05:27;;;;;;;23.30;6.07;;;9.70;99.90;;;;;;7258645;19;20220;-80
2023/04/25 05:08:10;;;;;;;28.10;6.83;;;9.80;99.90;;;;;;7282337;19;20651;-81
2023/04/25 05:11:14;;;;;;;26.90;6.20;;;9.90;99.90;;;;;;7180442;19;2004628;-81
2023/04/25 05:13:55;;;;;;;28.00;6.03;;;9.80;99.90;;;;;;7276125;19;20203;-80
2023/04/25 05:16:45;;;;;;;24.47;5.77;;;9.50;99.90;;;;;;7289602;19;20647;-81
2023/04/25 05:19:30;;;;;;;26.97;6.53;;;9.30;99.90;;;;;;7188852;19;2004580;-81
2023/04/25 05:22:16;;;;;;;21.37;6.70;;;9.30;99.90;;;;;;7288669;19;20635;-81
2023/04/25 05:25:11;;;;;;;27.03;6.73;;;9.40;99.90;;;;;;7183015;19;2004671;-82
2023/04/25 05:27:56;;;;;;;24.00;6.50;;;9.40;99.90;;;;;;7275836;19;20258;-80
2023/04/25 05:30:42;;;;;;;27.33;6.17;;;9.30;99.90;;;;;;7289147;19;20544;-82
2023/04/25 05:33:28;;;;;;;32.30;6.67;;;9.00;99.90;;;;;;7266215;19;20946;-81
2023/04/25 05:35:54;;;;;;;21.70;6.80;;;8.60;99.90;;;;;;7309054;19;20194;-79
2023/04/25 05:38:20;;;;;;;17.93;5.63;;;8.70;99.90;;;;;;7301742;19;20203;-81
2023/04/25 05:41:12;;;;;;;21.57;5.50;;;8.80;99.90;;;;;;7186084;19;2004888;-81
2023/04/25 05:43:46;;;;;;;20.10;5.30;;;8.60;99.90;;;;;;7285953;19;20182;-81
2023/04/25 05:46:21;;;;;;;18.00;4.63;;;8.70;99.90;;;;;;7288578;19;20191;-83
2023/04/25 05:49:09;;;;;;;18.83;4.87;;;8.80;99.90;;;;;;7184868;19;2004423;-82
2023/04/25 05:52:02;;;;;;;20.90;4.73;;;8.70;99.90;;;;;;7183156;19;2004585;-82
2023/04/25 05:54:47;;;;;;;16.43;4.30;;;8.60;99.90;;;;;;7287122;19;20200;-82
2023/04/25 05:57:24;;;;;;;18.33;4.57;;;8.80;99.90;;;;;;7285918;19;20660;-82
2023/04/25 05:59:50;;;;;;;18.43;4.03;;;8.70;99.90;;;;;;7288375;19;20250;-82
2023/04/25 06:02:17;;;;;;;18.97;4.40;;;8.70;99.90;;;;;;7282468;19;20614;-82
2023/04/25 06:04:43;;;;;;;18.67;5.03;;;8.70;99.90;;;;;;7286278;19;20650;-82
2023/04/25 06:07:09;;;;;;;20.37;5.10;;;8.60;99.90;;;;;;7286746;19;20218;-82
2023/04/25 06:09:35;;;;;;;15.33;4.47;;;8.70;99.90;;;;;;7285458;19;20188;-82
2023/04/25 06:12:01;;;;;;;18.13;4.80;;;8.90;99.90;;;;;;7287327;19;20198;-82
2023/04/25 06:14:29;;;;;;;23.07;4.23;;;9.00;99.90;;;;;;7286611;19;20199;-82
2023/04/25 06:16:54;;;;;;;18.10;4.60;;;9.00;99.90;;;;;;7303541;19;20185;-81
2023/04/25 06:19:20;;;;;;;22.37;4.87;;;9.10;99.90;;;;;;7300032;19;20285;-82
2023/04/25 06:21:46;;;;;;;19.60;4.40;;;9.20;99.90;;;;;;7285561;19;20263;-82
2023/04/25 06:24:12;;;;;;;17.10;4.77;;;9.20;99.90;;;;;;7282014;19;20223;-82
2023/04/25 06:26:39;;;;;;;19.70;4.90;;;9.20;99.90;;;;;;7287717;19;20200;-82
2023/04/25 06:29:06;;;;;;;16.17;4.87;;;9.20;99.90;;;;;;7286161;19;20345;-82
2023/04/25 06:31:33;;;;;;;22.03;5.23;;;9.40;99.90;;;;;;7286498;19;20219;-82
2023/04/25 06:33:59;;;;;;;30.07;6.07;;;9.60;99.90;;;;;;7285588;19;20269;-81
2023/04/25 06:36:27;;;;;;;23.40;5.87;;;9.70;99.90;;;;;;7286495;19;20745;-82
2023/04/25 06:38:57;;;;;;;26.93;5.20;;;9.80;99.90;;;;;;7286321;19;20293;-81
2023/04/25 06:41:23;;;;;;;28.17;4.67;;;9.70;99.90;;;;;;7307848;19;20191;-81
2023/04/25 06:43:49;;;;;;;20.20;4.27;;;9.70;99.90;;;;;;7287212;19;20188;-82
2023/04/25 06:46:31;;;;;;;14.80;3.80;;;9.60;99.90;;;;;;7183493;19;2004558;-82
2023/04/25 06:48:58;;;;;;;21.37;4.40;;;9.50;99.90;;;;;;7285548;19;20202;-82
2023/04/25 06:51:28;;;;;;;19.97;4.37;;;9.80;99.90;;;;;;7305349;19;20272;-80
2023/04/25 06:53:54;;;;;;;16.50;4.60;;;10.00;99.90;;;;;;7308795;19;20557;-82
2023/04/25 06:56:30;;;;;;;18.60;3.97;;;10.20;99.90;;;;;;7264591;19;20191;-82
2023/04/25 06:59:02;;;;;;;17.90;4.17;;;10.20;99.90;;;;;;7285328;19;20191;-82
2023/04/25 07:01:35;;;;;;;16.93;4.03;;;10.30;99.90;;;;;;7284377;19;20198;-82
2023/04/25 07:04:05;;;;;;;19.17;4.70;;;10.30;99.90;;;;;;7286095;19;20247;-82
2023/04/25 07:06:33;;;;;;;20.77;4.90;;;10.20;99.90;;;;;;7284333;19;20190;-82
2023/04/25 07:08:59;;;;;;;16.90;4.63;;;10.40;99.90;;;;;;7285916;19;20270;-81
2023/04/25 07:11:25;;;;;;;19.77;4.53;;;10.70;99.90;;;;;;7296411;19;20269;-81
2023/04/25 07:13:52;;;;;;;23.27;4.60;;;10.80;99.90;;;;;;7304653;19;20193;-82
2023/04/25 07:16:18;;;;;;;24.47;5.00;;;10.90;99.90;;;;;;7285332;19;20200;-81
2023/04/25 07:18:45;;;;;;;16.20;3.77;;;10.70;99.90;;;;;;7284977;19;20590;-82
2023/04/25 07:21:11;;;;;;;20.63;3.80;;;10.40;99.90;;;;;;7285058;19;20247;-82
2023/04/25 07:23:40;;;;;;;15.73;3.83;;;9.90;99.90;;;;;;7284579;19;20260;-82
2023/04/25 07:26:10;;;;;;;24.87;4.50;;;9.70;99.90;;;;;;7284902;19;20193;-81
2023/04/25 07:28:43;;;;;;;19.47;3.90;;;9.90;99.90;;;;;;7284200;19;20252;-82
2023/04/25 07:31:09;;;;;;;18.63;3.90;;;9.90;99.90;;;;;;7283896;19;20208;-82
2023/04/25 07:33:35;;;;;;;16.17;3.90;;;10.20;99.90;;;;;;7280839;19;20212;-80
2023/04/25 07:36:01;;;;;;;19.03;4.00;;;10.40;99.90;;;;;;7283234;19;20189;-81
2023/04/25 07:38:28;;;;;;;24.27;5.17;;;10.40;99.90;;;;;;7283109;19;20215;-81
2023/04/25 07:40:54;;;;;;;18.30;3.70;;;10.40;99.90;;;;;;7306272;19;20283;-81
2023/04/25 07:43:21;;;;;;;16.07;3.30;;;10.70;99.90;;;;;;7283493;19;20189;-82
2023/04/25 07:45:54;;;;;;;16.27;3.10;;;10.90;99.90;;;;;;7286432;19;20188;-81
2023/04/25 07:48:21;;;;;;;18.13;3.20;;;10.80;99.90;;;;;;7285092;19;20187;-80
2023/04/25 07:50:48;;;;;;;17.80;3.53;;;10.80;99.90;;;;;;7289142;19;20562;-79
2023/04/25 07:53:14;;;;;;;17.70;2.87;;;10.90;99.90;;;;;;7282505;19;20695;-81
2023/04/25 07:55:50;;;;;;;16.47;2.80;;;11.50;99.90;;;;;;7284367;19;20683;-81
2023/04/25 07:58:24;;;;;;;20.67;2.80;;;12.00;99.90;;;;;;7285402;19;20202;-82
2023/04/25 08:00:54;;;;;;;16.40;3.07;;;12.40;99.90;;;;;;7283711;19;20567;-81
2023/04/25 08:03:40;;;;;;;16.47;2.80;;;12.40;99.90;;;;;;7183665;19;2004482;-82
2023/04/25 08:06:13;;;;;;;16.83;2.83;;;12.30;99.90;;;;;;7283362;19;20192;-81
2023/04/25 08:08:49;;;;;;;15.40;2.90;;;12.60;99.90;;;;;;7284303;19;20185;-81
2023/04/25 08:11:18;;;;;;;13.77;2.70;;;12.40;99.90;;;;;;7283790;19;20256;-81
2023/04/25 08:13:44;;;;;;;17.77;3.40;;;12.20;99.90;;;;;;7283823;19;20210;-81
2023/04/25 08:16:10;;;;;;;14.97;2.90;;;11.80;99.90;;;;;;7281588;19;20206;-82
2023/04/25 08:18:35;;;;;;;13.63;2.53;;;11.40;99.90;;;;;;7283202;19;20188;-81
2023/04/25 08:21:01;;;;;;;15.00;2.73;;;11.30;99.90;;;;;;7283567;19;20624;-81
2023/04/25 08:23:27;;;;;;;17.13;2.97;;;11.30;99.90;;;;;;7283518;19;20253;-81
2023/04/25 08:26:08;;;;;;;13.57;2.80;;;11.80;99.90;;;;;;7282886;19;20184;-81
2023/04/25 08:28:37;;;;;;;16.23;3.20;;;12.50;99.90;;;;;;7281724;19;22172;-81
2023/04/25 08:31:03;;;;;;;14.10;2.73;;;13.10;99.90;;;;;;7282463;19;20185;-81
2023/04/25 08:33:37;;;;;;;13.33;2.90;;;13.20;99.90;;;;;;7282348;19;20187;-82
2023/04/25 08:36:23;;;;;;;17.97;2.97;;;14.10;99.90;;;;;;7282850;19;20199;-82
2023/04/25 08:38:49;;;;;;;15.77;2.70;;;14.20;99.90;;;;;;7281928;19;20306;-82
2023/04/25 08:41:20;;;;;;;15.20;2.90;;;15.00;99.90;;;;;;7283162;19;20192;-82
2023/04/25 08:43:49;;;;;;;14.27;2.70;;;15.70;99.90;;;;;;7282057;19;20217;-81
2023/04/25 08:46:18;;;;;;;11.80;2.50;;;18.30;99.90;;;;;;7285810;19;20207;-81
2023/04/25 08:49:04;;;;;;;14.83;2.90;;;19.90;99.90;;;;;;7188377;19;2004608;-82
2023/04/25 08:51:32;;;;;;;13.10;2.03;;;21.10;99.90;;;;;;7289601;19;20202;-81
2023/04/25 08:54:10;;;;;;;15.87;3.07;;;21.50;97.10;;;;;;7289065;19;20212;-81
2023/04/25 08:56:38;;;;;;;14.97;2.83;;;21.20;96.70;;;;;;7289855;19;20203;-82
2023/04/25 08:59:07;;;;;;;11.83;2.33;;;20.70;98.00;;;;;;7289808;19;20196;-82
2023/04/25 09:01:36;;;;;;;10.47;2.30;;;20.40;96.70;;;;;;7287862;19;20185;-82
2023/04/25 09:04:02;;;;;;;15.77;2.80;;;18.80;98.30;;;;;;7288584;19;20188;-81
2023/04/25 09:06:31;;;;;;;9.93;2.10;;;18.20;99.90;;;;;;7283859;19;20187;-81
2023/04/25 09:09:06;;;;;;;10.97;2.47;;;18.30;99.90;;;;;;7288105;19;20625;-81
2023/04/25 09:11:33;;;;;;;9.13;2.20;;;18.10;99.90;;;;;;7288624;19;20184;-82
2023/04/25 09:14:22;;;;;;;9.53;2.27;;;19.10;99.90;;;;;;7288505;19;20209;-82
2023/04/25 09:17:02;;;;;;;10.20;2.20;;;19.60;96.30;;;;;;7186599;19;2004381;-82
2023/04/25 09:19:39;;;;;;;11.87;2.40;;;19.00;99.90;;;;;;7288456;19;20193;-81
2023/04/25 09:22:10;;;;;;;12.77;1.97;;;17.50;99.90;;;;;;7288605;19;20187;-82
2023/04/25 09:24:36;;;;;;;7.57;1.80;;;16.20;99.90;;;;;;7286521;19;20199;-82
2023/04/25 09:27:10;;;;;;;13.10;2.13;;;15.50;99.90;;;;;;7288510;19;20193;-81
2023/04/25 09:29:39;;;;;;;11.97;2.83;;;15.00;99.90;;;;;;7288663;19;20203;-81
2023/04/25 09:32:14;;;;;;;13.90;2.40;;;14.80;99.90;;;;;;7287814;19;20188;-82
2023/04/25 09:34:41;;;;;;;9.63;2.00;;;14.40;99.90;;;;;;7288274;19;20184;-81
2023/04/25 09:37:11;;;;;;;14.97;2.40;;;14.30;99.90;;;;;;7287830;19;20651;-81
2023/04/25 09:40:05;;;;;;;11.60;2.80;;;14.30;99.90;;;;;;7278440;19;20598;-81
2023/04/25 09:42:34;;;;;;;12.43;2.47;;;13.90;99.90;;;;;;7289131;19;20189;-82
2023/04/25 09:45:02;;;;;;;13.70;2.30;;;13.40;99.90;;;;;;7288344;19;20180;-81
2023/04/25 09:47:30;;;;;;;14.90;3.00;;;13.20;99.90;;;;;;7288925;19;20189;-81
2023/04/25 09:49:56;;;;;;;10.77;2.30;;;13.00;99.90;;;;;;7292606;19;20183;-81
2023/04/25 09:52:24;;;;;;;17.47;2.93;;;13.20;99.90;;;;;;7309421;19;20198;-81
2023/04/25 09:55:01;;;;;;;12.80;2.43;;;13.40;99.90;;;;;;7184810;19;2004372;-81
2023/04/25 09:57:33;;;;;;;12.67;2.27;;;14.10;99.90;;;;;;7285343;19;20198;-81
2023/04/25 10:00:01;;;;;;;9.90;2.70;;;14.10;99.90;;;;;;7287408;19;20677;-81
2023/04/25 10:02:46;;;;;;;10.97;2.17;;;13.90;99.90;;;;;;7287732;19;20195;-81
2023/04/25 10:05:26;;;;;;;10.23;2.20;;;14.60;99.90;;;;;;7288438;19;20220;-81
2023/04/25 10:07:55;;;;;;;12.87;2.60;;;16.30;99.90;;;;;;7287687;19;20224;-81
2023/04/25 10:10:25;;;;;;;11.93;1.97;;;18.00;99.90;;;;;;7288194;19;20618;-82
2023/04/25 10:12:51;;;;;;;12.53;2.30;;;19.40;99.90;;;;;;7286958;19;20210;-82
2023/04/25 10:15:17;;;;;;;13.80;1.93;;;20.70;99.90;;;;;;7286824;19;20196;-82
2023/04/25 10:17:44;;;;;;;8.73;2.00;;;21.80;94.80;;;;;;7287557;19;20197;-81
2023/04/25 10:20:11;;;;;;;10.67;1.83;;;21.60;93.10;;;;;;7289281;19;20188;-82
2023/04/25 10:22:45;;;;;;;8.60;1.93;;;21.80;88.80;;;;;;7288661;19;20195;-81
2023/04/25 10:25:12;;;;;;;12.37;2.10;;;21.50;84.60;;;;;;7287968;19;20196;-83
2023/04/25 10:27:39;;;;;;;9.47;2.17;;;20.90;91.30;;;;;;7285060;19;20188;-82
2023/04/25 10:30:10;;;;;;;9.03;1.80;;;20.00;90.40;;;;;;7287192;19;20188;-82
2023/04/25 10:32:35;;;;;;;7.17;1.50;;;20.70;90.20;;;;;;7285675;19;20191;-82
2023/04/25 10:35:25;;;;;;;8.00;1.60;;;22.30;86.90;;;;;;7286629;19;20187;-82
2023/04/25 10:38:08;;;;;;;6.97;1.90;;;20.70;84.90;;;;;;7285840;19;20290;-84
2023/04/25 10:40:34;;;;;;;9.93;1.80;;;21.00;83.40;;;;;;7184931;19;2004624;-82
2023/04/25 10:43:30;;;;;;;8.10;1.70;;;20.60;81.90;;;;;;7285010;19;20189;-81
2023/04/25 10:45:58;;;;;;;8.40;1.50;;;20.10;84.10;;;;;;7274660;19;20196;-81
2023/04/25 10:48:28;;;;;;;7.23;1.67;;;20.30;83.40;;;;;;7307013;19;20192;-82
2023/04/25 10:51:19;;;;;;;5.60;1.57;;;20.20;79.30;;;;;;7285828;19;20819;-82
2023/04/25 10:54:05;;;;;;;5.63;1.60;;;19.30;81.50;;;;;;7184130;19;2004881;-82
2023/04/25 10:56:39;;;;;;;8.80;1.60;;;18.10;86.90;;;;;;7182987;19;2004414;-81
2023/04/25 10:59:09;;;;;;;14.17;1.80;;;16.20;90.90;;;;;;7284053;19;20582;-81
2023/04/25 11:01:45;;;;;;;14.23;2.30;;;14.50;99.90;;;;;;7285147;19;20202;-82
2023/04/25 11:04:21;;;;;;;14.30;2.00;;;13.20;99.90;;;;;;7285667;19;20198;-82
2023/04/25 11:07:11;;;;;;;9.63;2.20;;;11.90;99.90;;;;;;7282833;19;20636;-82
2023/04/25 11:09:41;;;;;;;11.37;2.03;;;11.60;99.90;;;;;;7182560;19;2005430;-79
2023/04/25 11:12:11;;;;;;;8.60;1.80;;;11.20;99.90;;;;;;7291098;19;20532;-79
2023/04/25 11:14:37;;;;;;;14.20;2.00;;;11.30;99.90;;;;;;7291592;19;20185;-79
2023/04/25 11:17:03;;;;;;;15.73;2.20;;;11.10;99.90;;;;;;7281101;19;20208;-81
2023/04/25 11:19:30;;;;;;;12.17;2.13;;;10.90;99.90;;;;;;7283227;19;20180;-80
2023/04/25 11:21:57;;;;;;;14.10;1.93;;;10.80;99.90;;;;;;7305890;19;20181;-79
2023/04/25 11:24:30;;;;;;;10.53;1.60;;;10.50;99.90;;;;;;7307290;19;20180;-82
2023/04/25 11:27:02;;;;;;;11.37;1.80;;;10.60;99.90;;;;;;7280255;19;20194;-81
2023/04/25 11:29:28;;;;;;;15.83;2.00;;;10.80;99.90;;;;;;7284445;19;20644;-82
2023/04/25 11:31:57;;;;;;;18.20;2.27;;;10.90;99.90;;;;;;7305929;19;20191;-82
2023/04/25 11:34:24;;;;;;;18.43;2.30;;;11.00;99.90;;;;;;7285769;19;20184;-81
2023/04/25 11:36:52;;;;;;;9.87;1.90;;;11.20;99.90;;;;;;7284369;19;20179;-81
2023/04/25 11:39:19;;;;;;;11.07;2.10;;;11.30;99.90;;;;;;7284057;19;20193;-80
2023/04/25 11:41:45;;;;;;;11.53;1.70;;;11.40;99.90;;;;;;7283397;19;20518;-80
2023/04/25 11:44:11;;;;;;;12.80;1.67;;;11.60;99.90;;;;;;7284474;19;20779;-81
2023/04/25 11:46:37;;;;;;;9.30;1.47;;;11.70;99.90;;;;;;7279525;19;20185;-82
2023/04/25 11:49:03;;;;;;;8.93;1.60;;;11.90;99.90;;;;;;7283493;19;20189;-82
2023/04/25 11:51:30;;;;;;;14.10;3.07;;;12.00;99.90;;;;;;7282968;19;20199;-80
2023/04/25 11:53:56;;;;;;;8.30;1.60;;;11.80;99.90;;;;;;7297754;19;20183;-80
2023/04/25 11:56:22;;;;;;;10.47;1.70;;;11.70;99.90;;;;;;7301430;19;20219;-81
2023/04/25 11:59:00;;;;;;;12.87;1.70;;;11.60;99.90;;;;;;7283966;19;20635;-81
2023/04/25 12:01:33;;;;;;;9.27;1.40;;;11.60;99.90;;;;;;7277386;19;20191;-81
2023/04/25 12:04:14;;;;;;;8.17;1.30;;;11.70;99.90;;;;;;7283990;19;20541;-81
2023/04/25 12:06:42;;;;;;;9.23;1.37;;;11.80;99.90;;;;;;7282619;19;20198;-80
2023/04/25 12:09:10;;;;;;;4.00;1.00;;;12.30;99.90;;;;;;7277466;19;20288;-82
2023/04/25 12:11:47;;;;;;;6.30;1.30;;;13.10;99.90;;;;;;7282622;19;20584;-82
2023/04/25 12:14:24;;;;;;;6.93;1.10;;;14.60;99.90;;;;;;7282910;19;20187;-81
2023/04/25 12:16:53;;;;;;;6.13;1.00;;;15.10;99.90;;;;;;7282291;19;20193;-82
2023/04/25 12:19:20;;;;;;;9.47;1.53;;;15.10;99.90;;;;;;7284053;19;20640;-82
2023/04/25 12:21:46;;;;;;;7.27;1.30;;;14.90;99.90;;;;;;7277971;19;20298;-82
2023/04/25 12:24:23;;;;;;;6.17;1.00;;;14.90;99.90;;;;;;7290412;19;20185;-81
2023/04/25 12:26:58;;;;;;;5.67;1.60;;;15.10;99.90;;;;;;7290199;19;20256;-82
2023/04/25 12:29:26;;;;;;;7.40;1.40;;;15.60;99.90;;;;;;7290860;19;20651;-81
2023/04/25 12:31:53;;;;;;;7.07;1.10;;;15.40;99.90;;;;;;7288862;19;20292;-81
2023/04/25 12:34:23;;;;;;;10.77;1.63;;;15.60;99.90;;;;;;7289749;19;20209;-82
2023/04/25 12:36:50;;;;;;;6.13;1.30;;;15.70;99.90;;;;;;7287130;19;20668;-82
2023/04/25 12:39:23;;;;;;;9.03;1.27;;;15.50;99.90;;;;;;7287383;19;25371;-82
2023/04/25 12:41:50;;;;;;;6.73;1.60;;;15.30;99.90;;;;;;7289791;19;20952;-82
2023/04/25 12:44:16;;;;;;;5.13;1.20;;;15.20;99.90;;;;;;7289257;19;21065;-81
2023/04/25 12:46:42;;;;;;;8.63;1.60;;;15.40;99.90;;;;;;7289416;19;20276;-82
2023/04/25 12:49:09;;;;;;;7.40;1.20;;;15.40;99.90;;;;;;7289024;19;20197;-82
2023/04/25 12:51:35;;;;;;;6.43;1.33;;;15.30;99.90;;;;;;7288566;19;20254;-82
2023/04/25 12:54:02;;;;;;;5.23;1.20;;;15.60;99.90;;;;;;7289563;19;20191;-82
2023/04/25 12:56:30;;;;;;;5.70;1.30;;;15.80;99.90;;;;;;7287942;19;20666;-81
2023/04/25 12:58:56;;;;;;;6.97;1.10;;;16.00;99.90;;;;;;7312191;19;20193;-81